Time;durP1;ratioP1;P1;durP2;ratioP2;P2;SDS_P1;SDS_P2;PMS_P1;PMS_P2;Temp;Humidity;BMP_temperature;BMP_pressure;BME280_temperature;BME280_humidity;BME280_pressure;Samples;Min_cycle;Max_cycle;Signal;HPM_P1;HPM_P2
2021/12/10 00:01:51;;;;;;;55.05;24.55;;;;;;;-0.52;81.80;97305.44;1676277;84;25969;-60
2021/12/10 00:04:29;;;;;;;64.32;25.20;;;;;;;-0.55;81.72;97290.40;1676281;85;25660;-61
2021/12/10 00:07:05;;;;;;;60.75;24.40;;;;;;;-0.51;82.29;97288.76;1676061;84;25464;-60
2021/12/10 00:09:37;;;;;;;58.55;24.23;;;;;;;-0.47;82.15;97293.03;1676060;85;25656;-60
2021/12/10 00:12:09;;;;;;;113.68;44.20;;;;;;;-0.44;82.16;97305.41;1676371;84;28149;-61
2021/12/10 00:14:37;;;;;;;93.30;31.12;;;;;;;-0.47;81.75;97311.34;1676308;85;25491;-61
2021/12/10 00:17:08;;;;;;;82.57;28.75;;;;;;;-0.53;81.66;97311.91;1676338;84;25624;-60
2021/12/10 00:19:45;;;;;;;86.57;31.40;;;;;;;-0.52;82.03;97305.97;1676484;85;27083;-60
2021/12/10 00:22:16;;;;;;;76.25;27.87;;;;;;;-0.48;82.04;97303.55;1675384;85;25704;-61
2021/12/10 00:24:45;;;;;;;72.12;28.25;;;;;;;-0.46;81.82;97307.56;1676093;84;29479;-60
2021/12/10 00:27:13;;;;;;;84.55;30.00;;;;;;;-0.53;81.56;97293.07;1676231;84;25702;-60
2021/12/10 00:29:48;;;;;;;82.72;28.85;;;;;;;-0.49;81.90;97279.85;1676244;84;25419;-60
2021/12/10 00:32:29;;;;;;;72.87;27.67;;;;;;;-0.51;81.75;97265.33;1676141;84;25682;-61
2021/12/10 00:34:51;;;;;;;76.70;27.93;;;;;;;-0.54;81.56;97255.14;1676258;84;25681;-61
2021/12/10 00:37:22;;;;;;;71.57;28.70;;;;;;;-0.67;81.36;97249.80;1676481;85;27583;-60
2021/12/10 00:39:54;;;;;;;69.30;28.15;;;;;;;-0.69;81.92;97253.29;1676307;85;34318;-61
2021/12/10 00:42:25;;;;;;;62.45;25.55;;;;;;;-0.66;82.03;97255.43;1676443;85;25671;-61
2021/12/10 00:44:54;;;;;;;66.00;26.75;;;;;;;-0.65;81.77;97259.75;1675991;84;27892;-61
2021/12/10 00:47:21;;;;;;;62.98;24.80;;;;;;;-0.72;81.68;97259.22;1676394;85;25620;-62
2021/12/10 00:49:48;;;;;;;59.73;24.80;;;;;;;-0.67;82.04;97256.52;1678591;85;27446;-61
2021/12/10 00:52:16;;;;;;;56.70;24.90;;;;;;;-0.65;81.70;97250.33;1686057;83;25674;-60
2021/12/10 00:54:45;;;;;;;68.00;25.97;;;;;;;-0.65;81.84;97250.87;1686215;83;25625;-60
2021/12/10 00:57:14;;;;;;;64.62;25.60;;;;;;;-0.59;82.03;97251.64;1686039;85;25748;-60
2021/12/10 00:59:42;;;;;;;87.88;33.20;;;;;;;-0.54;81.83;97253.80;1686373;83;25696;-60
2021/12/10 01:02:12;;;;;;;73.83;27.00;;;;;;;-0.53;81.63;97255.39;1686307;83;28198;-60
2021/12/10 01:04:43;;;;;;;70.77;28.97;;;;;;;-0.58;81.33;97250.02;1686739;83;25479;-61
2021/12/10 01:07:15;;;;;;;76.07;31.02;;;;;;;-0.60;81.44;97240.63;1686861;85;25620;-60
2021/12/10 01:09:46;;;;;;;72.85;30.05;;;;;;;-0.58;81.42;97246.55;1686478;85;26400;-61
2021/12/10 01:12:25;;;;;;;;;;;;;;;-0.65;81.25;97248.99;1689383;85;25612;-61
2021/12/10 01:23:48;;;;;;;79.32;31.17;;;;;;;-0.70;81.57;97240.11;1686318;85;25631;-61
2021/12/10 01:28:50;;;;;;;90.72;33.40;;;;;;;-0.78;81.35;97263.00;1686553;85;25698;-61
2021/12/10 01:31:18;;;;;;;79.87;30.45;;;;;;;-0.83;81.44;97265.72;1686650;83;25399;-61
2021/12/10 01:33:45;;;;;;;86.37;34.25;;;;;;;-0.84;81.57;97259.53;1686205;85;25725;-61
2021/12/10 01:36:13;;;;;;;84.83;31.70;;;;;;;-0.83;81.82;97251.75;1686153;83;25755;-62
2021/12/10 01:38:43;;;;;;;90.45;33.60;;;;;;;-0.80;81.78;97242.31;1686562;83;25564;-60
2021/12/10 01:41:15;;;;;;;90.50;35.23;;;;;;;-0.86;81.66;97248.26;1686236;83;27465;-60
2021/12/10 01:43:43;;;;;;;93.30;33.95;;;;;;;-0.87;81.89;97258.73;1686199;83;25491;-61
2021/12/10 01:46:18;;;;;;;86.53;33.90;;;;;;;-0.91;81.78;97261.18;1686494;83;25841;-61
2021/12/10 01:48:50;;;;;;;93.97;36.60;;;;;;;-0.92;81.91;97258.20;1685683;85;25680;-61
2021/12/10 01:51:22;;;;;;;100.70;36.23;;;;;;;-0.93;82.00;97257.95;1686242;85;25683;-61
2021/12/10 01:53:52;;;;;;;86.20;35.15;;;;;;;-0.89;82.23;97248.80;1686611;83;28174;-61
2021/12/10 01:56:24;;;;;;;94.55;36.05;;;;;;;-0.90;82.08;97241.27;1685847;85;33177;-61
2021/12/10 01:58:51;;;;;;;83.40;32.88;;;;;;;-0.92;82.03;97228.62;1685289;85;25574;-61
2021/12/10 02:01:31;;;;;;;92.05;33.90;;;;;;;-0.92;82.11;97239.38;1686167;83;25758;-61
2021/12/10 02:03:59;;;;;;;88.65;32.50;;;;;;;-0.91;82.19;97253.11;1686429;83;25467;-61
2021/12/10 02:06:25;;;;;;;86.57;35.13;;;;;;;-0.90;82.09;97254.71;1686249;83;27479;-61
2021/12/10 02:08:52;;;;;;;91.28;34.23;;;;;;;-0.92;82.05;97246.09;1686023;85;25741;-61
2021/12/10 02:11:20;;;;;;;88.00;34.13;;;;;;;-0.92;82.25;97246.66;1686177;83;25607;-62
2021/12/10 02:13:48;;;;;;;96.12;36.55;;;;;;;-0.96;82.14;97247.73;1686142;85;25696;-63
2021/12/10 02:16:15;;;;;;;87.50;34.13;;;;;;;-0.98;82.24;97246.41;1686332;85;25413;-61
2021/12/10 02:18:43;;;;;;;93.65;35.35;;;;;;;-0.96;82.43;97239.66;1686735;83;28262;-60
2021/12/10 02:21:13;;;;;;;95.57;36.93;;;;;;;-0.96;82.30;97244.23;1686390;85;25774;-64
2021/12/10 02:23:45;;;;;;;95.25;34.35;;;;;;;-0.96;82.45;97244.23;1686752;83;25583;-61
2021/12/10 02:26:14;;;;;;;98.37;36.17;;;;;;;-0.93;82.52;97249.87;1686183;85;25832;-64
2021/12/10 02:28:42;;;;;;;106.10;39.18;;;;;;;-0.93;82.38;97247.72;1686210;85;25413;-64
2021/12/10 02:31:11;;;;;;;102.82;36.03;;;;;;;-0.92;82.33;97243.97;1686162;83;27507;-62
2021/12/10 02:33:41;;;;;;;98.05;36.50;;;;;;;-0.90;82.52;97235.06;1686232;83;25760;-62
2021/12/10 02:36:11;;;;;;;101.65;37.08;;;;;;;-0.89;82.61;97215.18;1686478;85;25651;-61
2021/12/10 02:38:36;;;;;;;95.77;35.45;;;;;;;-0.82;82.68;97220.25;1686084;83;25434;-62
2021/12/10 02:41:03;;;;;;;106.95;39.67;;;;;;;-0.82;82.44;97216.22;1686245;83;25475;-62
2021/12/10 02:43:29;;;;;;;108.65;40.85;;;;;;;-0.83;82.42;97230.23;1686804;85;27433;-61
2021/12/10 02:45:57;;;;;;;106.35;41.02;;;;;;;-0.85;82.28;97223.49;1686076;84;25682;-62
2021/12/10 02:48:26;;;;;;;104.45;38.42;;;;;;;-0.82;82.57;97229.14;1686443;83;25646;-61
2021/12/10 02:50:55;;;;;;;105.32;40.15;;;;;;;-0.77;82.66;97210.83;1673296;85;25690;-61
2021/12/10 02:53:27;;;;;;;98.33;36.98;;;;;;;-0.70;82.71;97200.57;1657122;85;25427;-62
2021/12/10 02:55:51;;;;;;;101.92;38.02;;;;;;;-0.71;82.43;97192.25;1656946;85;27034;-62
2021/12/10 02:58:17;;;;;;;100.62;37.35;;;;;;;-0.69;82.42;97199.48;1656907;86;27216;-61
2021/12/10 03:00:58;;;;;;;98.65;37.50;;;;;;;-0.70;82.34;97197.06;1657024;86;25496;-61
2021/12/10 03:03:24;;;;;;;92.70;35.73;;;;;;;-0.72;82.35;97196.55;1656891;86;25725;-60
2021/12/10 03:05:51;;;;;;;104.23;38.67;;;;;;;-0.74;82.35;97189.29;1656938;86;25681;-60
2021/12/10 03:08:18;;;;;;;95.92;36.75;;;;;;;-0.75;82.53;97183.09;1656973;86;29453;-62
2021/12/10 03:10:45;;;;;;;98.80;36.25;;;;;;;-0.70;82.45;97180.92;1656836;86;25661;-62
2021/12/10 03:13:13;;;;;;;110.22;38.48;;;;;;;-0.70;82.36;97187.12;1656972;86;25624;-62
2021/12/10 03:15:40;;;;;;;134.57;48.05;;;;;;;-0.69;82.36;97187.38;1656914;86;25808;-63
2021/12/10 03:18:12;;;;;;;114.35;44.13;;;;;;;-0.67;82.48;97193.30;1657342;85;25478;-62
2021/12/10 03:20:39;;;;;;;162.82;58.68;;;;;;;-0.66;82.55;97186.03;1656793;86;27476;-61
2021/12/10 03:23:07;;;;;;;233.05;83.15;;;;;;;-0.70;82.52;97187.65;1656837;86;25628;-62
2021/12/10 03:25:34;;;;;;;713.95;284.35;;;;;;;-0.70;82.66;97188.99;1657333;85;25667;-61
2021/12/10 03:28:01;;;;;;;221.07;64.65;;;;;;;-0.68;82.68;97194.91;1657281;86;25772;-61
2021/12/10 03:30:33;;;;;;;248.82;69.40;;;;;;;-0.72;82.61;97179.06;1657125;85;25676;-61
2021/12/10 03:33:00;;;;;;;153.27;48.92;;;;;;;-0.73;82.71;97183.63;1657021;85;29591;-62
2021/12/10 03:35:31;;;;;;;142.87;46.30;;;;;;;-0.74;82.72;97176.66;1656847;86;25452;-62
2021/12/10 03:38:01;;;;;;;93.22;35.85;;;;;;;-0.75;82.69;97172.33;1656962;85;25431;-61
2021/12/10 03:40:28;;;;;;;88.55;31.97;;;;;;;-0.74;82.71;97169.92;1656922;86;25785;-61
2021/12/10 03:42:58;;;;;;;79.92;32.33;;;;;;;-0.76;82.90;97171.55;1656944;86;25733;-61
2021/12/10 03:45:23;;;;;;;85.53;31.75;;;;;;;-0.81;82.86;97160.02;1656995;85;25955;-61
2021/12/10 03:47:50;;;;;;;64.32;27.02;;;;;;;-0.85;82.83;97160.28;1656812;85;25661;-60
2021/12/10 03:50:27;;;;;;;56.58;23.57;;;;;;;-0.89;82.84;97155.45;1656842;85;25600;-61
2021/12/10 03:52:54;;;;;;;64.12;24.72;;;;;;;-0.95;83.07;97156.55;1657246;85;26473;-62
2021/12/10 03:55:23;;;;;;;57.55;25.02;;;;;;;-0.97;83.08;97160.08;1657238;86;25432;-61
2021/12/10 03:57:51;;;;;;;67.37;26.23;;;;;;;-0.98;83.23;97165.73;1656964;86;27490;-61
2021/12/10 04:00:21;;;;;;;53.70;21.55;;;;;;;-0.99;83.32;97174.86;1656882;86;25444;-61
2021/12/10 04:02:49;;;;;;;56.10;23.30;;;;;;;-1.02;83.36;97177.03;1657418;85;25719;-62
2021/12/10 04:05:17;;;;;;;54.55;21.68;;;;;;;-1.05;83.35;97183.48;1657260;86;25831;-61
2021/12/10 04:07:43;;;;;;;55.23;22.48;;;;;;;-1.07;83.53;97185.11;1657119;86;25633;-61
2021/12/10 04:10:14;;;;;;;55.28;22.05;;;;;;;-1.10;83.52;97187.00;1656942;85;27392;-61
2021/12/10 04:12:40;;;;;;;51.27;22.13;;;;;;;-1.12;83.67;97206.64;1657428;86;25732;-61
2021/12/10 04:15:09;;;;;;;51.50;19.90;;;;;;;-1.16;83.79;97202.88;1656934;85;25470;-61
2021/12/10 04:17:37;;;;;;;55.90;23.57;;;;;;;-1.18;84.03;97201.02;1657110;86;25732;-62
2021/12/10 04:20:07;;;;;;;45.63;18.77;;;;;;;-1.16;83.89;97198.31;1657054;85;25423;-61
2021/12/10 04:22:34;;;;;;;47.58;20.37;;;;;;;-1.14;84.10;97203.42;1657383;85;27452;-62
2021/12/10 04:25:07;;;;;;;47.30;19.42;;;;;;;-1.16;84.02;97203.69;1656804;86;27214;-61
2021/12/10 04:27:35;;;;;;;64.47;24.50;;;;;;;-1.14;84.04;97208.80;1657207;85;25471;-62
2021/12/10 04:30:03;;;;;;;63.08;24.80;;;;;;;-1.16;83.94;97207.72;1657065;86;25672;-61
2021/12/10 04:32:30;;;;;;;54.05;23.22;;;;;;;-1.17;83.95;97208.81;1657281;86;25418;-64
2021/12/10 04:34:56;;;;;;;52.20;19.80;;;;;;;-1.16;84.06;97213.09;1657424;86;27977;-62
2021/12/10 04:37:23;;;;;;;45.48;18.55;;;;;;;-1.16;84.21;97204.22;1657168;86;25604;-61
2021/12/10 04:39:51;;;;;;;58.75;21.97;;;;;;;-1.16;84.37;97216.31;1657137;85;25727;-61
2021/12/10 04:42:22;;;;;;;62.83;24.45;;;;;;;-1.13;84.45;97227.87;1657198;85;25763;-61
2021/12/10 04:44:56;;;;;;;39.27;16.80;;;;;;;-1.12;84.54;97216.05;1657159;85;25683;-61
2021/12/10 04:47:24;;;;;;;44.10;16.87;;;;;;;-1.10;84.63;97218.48;1657339;86;27418;-61
2021/12/10 04:49:51;;;;;;;47.73;18.62;;;;;;;-1.12;84.77;97218.75;1656835;85;25618;-61
2021/12/10 04:52:17;;;;;;;44.80;18.00;;;;;;;-1.08;84.81;97221.15;1657160;85;25424;-63
2021/12/10 04:54:44;;;;;;;58.10;21.52;;;;;;;-1.05;84.84;97219.78;1656863;86;25790;-61
2021/12/10 04:57:11;;;;;;;37.40;15.63;;;;;;;-1.04;84.95;97219.52;1656834;86;25685;-62
2021/12/10 04:59:39;;;;;;;31.77;14.73;;;;;;;-1.00;84.91;97221.13;1656910;86;27469;-61
2021/12/10 05:02:10;;;;;;;47.83;17.07;;;;;;;-0.99;84.90;97221.39;1657119;86;25601;-61
2021/12/10 05:04:38;;;;;;;55.48;19.07;;;;;;;-0.96;84.83;97214.12;1657485;86;25605;-62
2021/12/10 05:07:06;;;;;;;39.42;15.45;;;;;;;-0.91;84.73;97210.61;1656935;85;25815;-61
2021/12/10 05:09:32;;;;;;;32.73;12.50;;;;;;;-0.87;84.70;97214.91;1657134;86;25588;-61
2021/12/10 05:12:01;;;;;;;35.70;13.62;;;;;;;-0.82;84.82;97217.03;1656803;85;27499;-62
2021/12/10 05:14:29;;;;;;;27.65;11.90;;;;;;;-0.80;84.70;97218.89;1656945;86;26066;-62
2021/12/10 05:16:59;;;;;;;35.38;13.15;;;;;;;-0.77;84.73;97225.06;1656885;84;25468;-62
2021/12/10 05:19:27;;;;;;;35.33;13.43;;;;;;;-0.73;84.74;97225.86;1656845;86;25657;-61
2021/12/10 05:21:54;;;;;;;30.90;11.80;;;;;;;-0.72;84.69;97228.84;1657048;85;25764;-61
2021/12/10 05:24:21;;;;;;;42.25;16.30;;;;;;;-0.69;84.76;97229.63;1657254;85;27995;-63
2021/12/10 05:26:48;;;;;;;33.90;14.43;;;;;;;-0.65;84.67;97223.43;1656701;86;25526;-62
2021/12/10 05:29:15;;;;;;;41.00;14.05;;;;;;;-0.59;84.62;97219.35;1657264;86;25689;-61
2021/12/10 05:31:44;;;;;;;35.58;16.20;;;;;;;-0.59;84.48;97218.82;1656852;86;25717;-63
2021/12/10 05:34:12;;;;;;;52.70;19.50;;;;;;;-0.57;84.34;97219.36;1657264;86;25689;-61
2021/12/10 05:36:39;;;;;;;51.10;18.25;;;;;;;-0.58;84.35;97216.39;1656889;86;27451;-62
2021/12/10 05:39:08;;;;;;;34.67;15.50;;;;;;;-0.52;84.34;97217.16;1657013;85;25692;-62
2021/12/10 05:41:35;;;;;;;32.53;11.78;;;;;;;-0.51;84.28;97211.50;1657120;85;25454;-61
2021/12/10 05:44:01;;;;;;;34.13;14.05;;;;;;;-0.53;83.90;97205.61;1657314;86;26347;-61
2021/12/10 05:46:28;;;;;;;23.73;11.25;;;;;;;-0.56;83.62;97207.50;1656875;86;25661;-62
2021/12/10 05:48:55;;;;;;;37.93;15.75;;;;;;;-0.66;83.47;97198.93;1657035;86;27559;-62
2021/12/10 05:51:22;;;;;;;38.13;15.18;;;;;;;-0.69;83.47;97209.45;1656818;85;25439;-61
2021/12/10 05:53:48;;;;;;;28.17;12.25;;;;;;;-0.76;83.38;97201.67;1656981;86;25686;-61
2021/12/10 05:56:14;;;;;;;57.48;20.20;;;;;;;-0.80;83.51;97200.62;1656976;86;25870;-61
2021/12/10 05:58:42;;;;;;;42.35;15.63;;;;;;;-0.80;83.43;97208.69;1657015;86;25488;-62
2021/12/10 06:01:12;;;;;;;40.75;15.08;;;;;;;-0.83;83.30;97205.20;1656955;85;27374;-61
2021/12/10 06:03:51;;;;;;;42.50;17.23;;;;;;;-0.84;83.31;97204.95;1657005;85;25690;-61
2021/12/10 06:06:10;;;;;;;30.45;15.68;;;;;;;-0.85;83.33;97197.94;1655526;86;25813;-62
2021/12/10 06:08:37;;;;;;;29.40;12.47;;;;;;;-0.89;83.24;97193.11;1657057;86;26786;-61
2021/12/10 06:11:06;;;;;;;32.30;12.75;;;;;;;-0.93;83.21;97185.33;1657030;86;25502;-61
2021/12/10 06:13:33;;;;;;;39.18;15.10;;;;;;;-0.95;83.34;97188.04;1657213;85;28057;-62
2021/12/10 06:16:00;;;;;;;27.35;11.18;;;;;;;-0.96;83.28;97187.75;1657164;85;25696;-61
2021/12/10 06:18:26;;;;;;;18.35;8.65;;;;;;;-0.99;83.30;97179.70;1656990;85;25634;-61
2021/12/10 06:20:54;;;;;;;36.40;13.60;;;;;;;-1.02;83.37;97190.48;1657055;86;27924;-62
2021/12/10 06:23:22;;;;;;;30.75;12.13;;;;;;;-1.02;83.22;97191.82;1657389;86;25745;-61
2021/12/10 06:25:49;;;;;;;33.18;11.50;;;;;;;-1.05;83.25;97192.38;1657425;86;27511;-61
2021/12/10 06:28:18;;;;;;;28.50;12.00;;;;;;;-1.07;83.16;97197.20;1656901;86;25766;-61
2021/12/10 06:30:48;;;;;;;36.25;15.88;;;;;;;-1.08;83.23;97194.79;1657678;86;25693;-61
2021/12/10 06:33:17;;;;;;;35.48;13.30;;;;;;;-1.10;83.09;97193.72;1657255;86;25847;-61
2021/12/10 06:35:49;;;;;;;38.90;14.38;;;;;;;-1.12;83.10;97194.55;1657451;86;25606;-62
2021/12/10 06:38:16;;;;;;;27.50;11.48;;;;;;;-1.13;82.93;97190.23;1657032;86;28639;-62
2021/12/10 06:40:44;;;;;;;34.23;13.50;;;;;;;-1.16;83.01;97202.34;1657393;85;25613;-65
2021/12/10 06:43:12;;;;;;;47.00;16.15;;;;;;;-1.18;82.96;97195.64;1656977;86;25691;-62
2021/12/10 06:45:40;;;;;;;33.73;13.30;;;;;;;-1.20;82.92;97205.84;1657235;86;25876;-61
2021/12/10 06:48:09;;;;;;;31.17;13.30;;;;;;;-1.21;82.88;97206.94;1657426;85;25472;-64
2021/12/10 06:50:40;;;;;;;37.08;12.88;;;;;;;-1.26;82.74;97209.09;1657437;85;27964;-62
2021/12/10 06:53:07;;;;;;;75.17;19.92;;;;;;;-1.28;82.93;97212.58;1673160;84;25411;-62
2021/12/10 06:55:34;;;;;;;53.30;16.25;;;;;;;-1.29;82.73;97221.17;1676083;85;25778;-62
2021/12/10 06:58:03;;;;;;;38.65;14.60;;;;;;;-1.30;82.88;97224.95;1676369;84;26383;-61
2021/12/10 07:00:37;;;;;;;42.13;13.43;;;;;;;-1.30;82.83;97226.82;1676424;84;25479;-62
2021/12/10 07:03:04;;;;;;;14.75;5.35;;;;;;;-1.33;82.87;97227.39;1676382;84;28647;-62
2021/12/10 07:05:30;;;;;;;51.40;16.00;;;;;;;-1.33;83.03;97223.36;1676082;85;26489;-62
2021/12/10 07:07:56;;;;;;;30.75;11.78;;;;;;;-1.29;82.92;97230.58;1676723;84;25648;-63
2021/12/10 07:10:24;;;;;;;36.53;12.05;;;;;;;-1.28;82.97;97232.21;1676271;85;25746;-63
2021/12/10 07:12:51;;;;;;;79.87;23.38;;;;;;;-1.25;82.98;97236.23;1676456;84;25600;-62
2021/12/10 07:15:18;;;;;;;90.75;28.40;;;;;;;-1.21;82.95;97227.09;1676207;84;28121;-61
2021/12/10 07:17:49;;;;;;;62.60;26.70;;;;;;;-1.18;82.92;97236.75;1676117;85;25656;-62
2021/12/10 07:20:20;;;;;;;29.10;13.15;;;;;;;-1.12;82.94;97238.91;1676370;84;25475;-61
2021/12/10 07:22:47;;;;;;;19.57;9.00;;;;;;;-1.06;82.67;97239.70;1676500;85;25837;-64
2021/12/10 07:25:15;;;;;;;22.48;9.55;;;;;;;-1.02;82.22;97239.41;1683847;84;25582;-63
2021/12/10 07:27:42;;;;;;;42.05;17.92;;;;;;;-1.01;81.87;97247.73;1691678;84;28218;-62
2021/12/10 07:30:11;;;;;;;68.10;21.65;;;;;;;-1.02;81.72;97244.78;1690027;84;25580;-63
2021/12/10 07:32:38;;;;;;;48.75;17.90;;;;;;;-1.04;81.72;97245.06;1685558;84;25710;-62
2021/12/10 07:35:08;;;;;;;43.05;15.93;;;;;;;-1.04;81.90;97243.72;1676032;85;25794;-63
2021/12/10 07:37:37;;;;;;;61.77;20.40;;;;;;;-1.05;82.03;97247.49;1676704;85;25474;-62
2021/12/10 07:40:09;;;;;;;60.75;20.90;;;;;;;-1.05;82.19;97239.42;1676307;84;27397;-63
2021/12/10 07:42:36;;;;;;;51.92;18.70;;;;;;;-1.02;82.37;97245.60;1675928;84;25619;-62
2021/12/10 07:45:06;;;;;;;46.37;19.17;;;;;;;-1.01;82.22;97245.05;1676116;85;25584;-62
2021/12/10 07:47:36;;;;;;;52.15;16.75;;;;;;;-1.01;82.18;97239.66;1676516;84;26680;-62
2021/12/10 07:50:11;;;;;;;41.15;16.42;;;;;;;-1.00;82.16;97238.61;1676003;84;25655;-63
2021/12/10 07:52:38;;;;;;;22.40;9.98;;;;;;;-0.99;82.08;97246.93;1680992;85;27530;-62
2021/12/10 07:55:09;;;;;;;85.70;27.30;;;;;;;-0.97;82.11;97232.69;1686276;85;25575;-62
2021/12/10 07:57:36;;;;;;;64.25;21.10;;;;;;;-0.91;82.34;97244.23;1686050;85;25482;-62
2021/12/10 08:00:07;;;;;;;47.83;19.55;;;;;;;-0.83;82.18;97238.30;1686117;83;25839;-62
2021/12/10 08:02:34;;;;;;;48.28;17.20;;;;;;;-0.77;82.22;97233.70;1686685;85;25492;-61
2021/12/10 08:05:01;;;;;;;16.55;6.33;;;;;;;-0.69;82.20;97230.98;1686095;83;27476;-62
2021/12/10 08:07:27;;;;;;;32.40;13.18;;;;;;;-0.65;81.78;97234.72;1686397;85;25677;-62
2021/12/10 08:09:54;;;;;;;52.98;19.98;;;;;;;-0.65;81.91;97238.76;1686070;85;25738;-64
2021/12/10 08:12:21;;;;;;;50.05;18.75;;;;;;;-0.55;82.11;97239.27;1686217;85;25753;-62
2021/12/10 08:14:52;;;;;;;89.95;31.90;;;;;;;-0.45;82.02;97231.67;1686110;85;25667;-63
2021/12/10 08:17:17;;;;;;;129.12;48.80;;;;;;;-0.37;81.64;97231.63;1686105;83;26823;-63
2021/12/10 08:19:43;;;;;;;54.93;23.27;;;;;;;-0.28;81.77;97225.94;1686000;85;25742;-63
2021/12/10 08:22:11;;;;;;;26.45;11.73;;;;;;;-0.23;81.34;97230.48;1686183;84;25658;-63
2021/12/10 08:24:37;;;;;;;26.40;11.65;;;;;;;-0.19;81.15;97228.31;1686240;83;25908;-64
2021/12/10 08:27:05;;;;;;;51.28;20.35;;;;;;;-0.17;80.90;97231.51;1686096;85;25663;-62
2021/12/10 08:29:31;;;;;;;93.37;30.45;;;;;;;-0.14;80.94;97231.52;1686407;85;27576;-62
2021/12/10 08:31:58;;;;;;;31.07;13.50;;;;;;;-0.19;80.68;97235.58;1686096;85;25648;-63
2021/12/10 08:34:24;;;;;;;49.20;20.30;;;;;;;-0.21;80.70;97234.50;1685934;83;25445;-63
2021/12/10 08:36:51;;;;;;;72.27;27.35;;;;;;;-0.13;81.09;97231.77;1686100;83;25776;-62
2021/12/10 08:39:18;;;;;;;65.17;25.08;;;;;;;-0.04;81.13;97242.22;1686056;85;25601;-63
2021/12/10 08:41:45;;;;;;;46.53;19.85;;;;;;;0.01;80.57;97244.61;1686295;83;27495;-62
2021/12/10 08:44:13;;;;;;;42.17;18.70;;;;;;;0.05;80.64;97241.08;1685973;85;25709;-62
2021/12/10 08:46:43;;;;;;;38.83;16.90;;;;;;;0.08;80.11;97237.01;1686431;83;25803;-62
2021/12/10 08:49:13;;;;;;;48.85;20.92;;;;;;;0.08;79.89;97234.31;1686397;85;25768;-65
2021/12/10 08:51:50;;;;;;;48.35;19.20;;;;;;;0.13;80.19;97241.03;1686113;85;25417;-62
2021/12/10 08:54:19;;;;;;;58.00;23.18;;;;;;;0.15;79.75;97244.79;1707397;84;27470;-62
2021/12/10 08:56:47;;;;;;;55.12;23.98;;;;;;;0.16;79.78;97242.34;1706069;82;25694;-62
2021/12/10 08:59:15;;;;;;;59.20;24.72;;;;;;;0.22;80.07;97245.27;1706142;84;25646;-62
2021/12/10 09:01:49;;;;;;;48.58;20.72;;;;;;;0.26;79.89;97240.95;1706138;84;26334;-63
2021/12/10 09:04:17;;;;;;;55.15;21.40;;;;;;;0.35;79.71;97247.32;1706478;84;25590;-63
2021/12/10 09:06:48;;;;;;;39.15;15.32;;;;;;;0.43;79.70;97245.12;1706075;84;27235;-62
2021/12/10 09:09:17;;;;;;;46.95;19.02;;;;;;;0.52;79.27;97245.32;1705746;84;25630;-61
2021/12/10 09:11:49;;;;;;;40.30;16.60;;;;;;;0.59;79.15;97242.56;1706110;84;25669;-62
2021/12/10 09:14:16;;;;;;;27.13;12.15;;;;;;;0.65;79.25;97241.97;1706145;84;25854;-61
2021/12/10 09:16:45;;;;;;;25.20;12.35;;;;;;;0.71;78.92;97231.39;1705924;84;25506;-62
2021/12/10 09:19:15;;;;;;;42.50;17.42;;;;;;;0.75;78.82;97239.73;1706198;84;27624;-62
2021/12/10 09:21:43;;;;;;;25.40;11.60;;;;;;;0.75;78.99;97231.08;1706003;82;25468;-63
2021/12/10 09:24:13;;;;;;;22.70;10.72;;;;;;;0.77;78.52;97219.22;1706214;84;25496;-62
2021/12/10 09:26:43;;;;;;;26.37;11.38;;;;;;;0.81;78.55;97222.38;1709577;83;25855;-61
2021/12/10 09:29:14;;;;;;;12.35;6.30;;;;;;;0.88;78.35;97215.31;1709648;84;25646;-62
2021/12/10 09:31:42;;;;;;;28.83;13.03;;;;;;;1.01;77.51;97220.59;1709813;83;28678;-62
2021/12/10 09:34:12;;;;;;;24.30;11.75;;;;;;;1.10;77.73;97220.19;1709556;83;25871;-63
2021/12/10 09:36:42;;;;;;;25.27;11.10;;;;;;;1.19;77.69;97219.58;1709827;84;25616;-64
2021/12/10 09:39:11;;;;;;;14.53;7.42;;;;;;;1.27;77.43;97218.14;1709695;83;25754;-62
2021/12/10 09:41:39;;;;;;;24.57;12.07;;;;;;;1.38;76.65;97212.33;1709650;83;25680;-62
2021/12/10 09:44:07;;;;;;;21.17;10.75;;;;;;;1.67;76.87;97205.20;1709637;83;27408;-63
2021/12/10 09:46:37;;;;;;;22.45;10.25;;;;;;;2.06;74.76;97197.09;1709337;84;25742;-63
2021/12/10 09:49:07;;;;;;;14.23;7.70;;;;;;;2.31;74.92;97198.60;1709601;83;25536;-63
2021/12/10 09:51:39;;;;;;;25.27;12.78;;;;;;;2.56;73.52;97188.44;1709638;83;25712;-63
2021/12/10 09:54:11;;;;;;;26.07;13.85;;;;;;;2.94;73.58;97178.58;1692810;83;25681;-61
2021/12/10 09:56:40;;;;;;;23.77;11.80;;;;;;;3.54;73.04;97180.09;1689400;84;26910;-62
2021/12/10 09:59:07;;;;;;;29.45;13.75;;;;;;;4.08;71.89;97182.13;1688365;84;25967;-62
2021/12/10 10:01:44;;;;;;;32.53;14.00;;;;;;;4.54;69.31;97179.39;1689384;84;25672;-62
2021/12/10 10:04:11;;;;;;;41.08;18.17;;;;;;;4.98;68.81;97173.63;1689132;85;25683;-60
2021/12/10 10:06:43;;;;;;;34.53;16.10;;;;;;;5.39;68.65;97179.05;1689225;85;25665;-61
2021/12/10 10:09:13;;;;;;;30.82;14.87;;;;;;;5.81;68.85;97169.09;1689184;85;28438;-60
2021/12/10 10:11:41;;;;;;;30.77;14.68;;;;;;;6.13;65.09;97166.27;1689389;84;25478;-60
2021/12/10 10:14:08;;;;;;;26.65;12.88;;;;;;;6.38;64.34;97165.98;1689148;84;25672;-60
2021/12/10 10:16:38;;;;;;;26.95;14.98;;;;;;;6.49;62.16;97162.37;1689432;84;25904;-61
2021/12/10 10:19:05;;;;;;;26.45;14.43;;;;;;;6.59;63.59;97162.56;1689202;85;26337;-62
2021/12/10 10:21:37;;;;;;;24.30;13.50;;;;;;;6.74;63.17;97153.65;1689338;85;27445;-60
2021/12/10 10:24:05;;;;;;;27.60;15.32;;;;;;;6.87;62.90;97154.00;1689435;84;25677;-61
2021/12/10 10:26:36;;;;;;;33.10;17.30;;;;;;;7.02;62.55;97151.29;1689608;84;25752;-61
2021/12/10 10:29:12;;;;;;;29.85;16.75;;;;;;;7.22;60.97;97148.14;1689109;84;25751;-61
2021/12/10 10:31:46;;;;;;;26.45;13.90;;;;;;;7.44;60.70;97144.89;1689345;85;25688;-61
2021/12/10 10:34:14;;;;;;;29.00;15.63;;;;;;;7.43;57.93;97143.31;1689216;84;27906;-60
2021/12/10 10:36:42;;;;;;;24.80;14.68;;;;;;;7.57;58.49;97148.52;1689282;84;26015;-60
2021/12/10 10:39:14;;;;;;;24.20;14.20;;;;;;;7.83;58.86;97142.07;1689236;84;25671;-59
2021/12/10 10:41:45;;;;;;;21.10;12.98;;;;;;;8.02;59.30;97144.31;1689564;84;25619;-58
2021/12/10 10:44:15;;;;;;;25.27;14.53;;;;;;;8.15;58.04;97145.17;1689059;84;25477;-58
2021/12/10 10:46:42;;;;;;;29.37;15.93;;;;;;;8.44;59.23;97145.38;1689603;84;27465;-59
2021/12/10 10:49:08;;;;;;;25.77;15.03;;;;;;;8.71;57.79;97142.63;1689418;84;25438;-61
2021/12/10 10:51:40;;;;;;;29.32;16.10;;;;;;;8.98;58.48;97144.47;1689229;85;25652;-60
2021/12/10 10:54:10;;;;;;;24.90;15.18;;;;;;;9.26;56.24;97140.26;1684066;84;25773;-59
2021/12/10 10:56:42;;;;;;;22.13;13.85;;;;;;;9.33;55.87;97143.23;1682099;85;25676;-59
2021/12/10 10:59:22;;;;;;;22.75;13.13;;;;;;;9.46;54.51;97148.67;1681692;85;27406;-59
2021/12/10 11:02:06;;;;;;;22.07;14.47;;;;;;;9.50;54.97;97144.91;1681398;84;25724;-59
2021/12/10 11:04:45;;;;;;;23.12;13.35;;;;;;;9.58;53.47;97153.34;1681563;85;25600;-61
2021/12/10 11:07:20;;;;;;;24.60;15.93;;;;;;;9.83;55.07;97154.08;1681608;84;26544;-61
2021/12/10 11:10:02;;;;;;;18.35;11.43;;;;;;;10.07;53.30;97155.14;1681492;85;25682;-61
2021/12/10 11:12:39;;;;;;;23.62;11.68;;;;;;;10.15;50.85;97152.03;1681614;84;27585;-61
2021/12/10 11:15:11;;;;;;;34.75;14.73;;;;;;;9.84;50.14;97161.14;1681790;85;25659;-61
2021/12/10 11:17:51;;;;;;;53.52;18.60;;;;;;;9.86;52.52;97169.81;1681889;84;25736;-61
2021/12/10 11:20:25;;;;;;;48.83;16.73;;;;;;;9.62;51.58;97165.19;1681919;85;26319;-61
2021/12/10 11:23:02;;;;;;;33.70;15.80;;;;;;;9.62;51.58;97165.19;1681370;85;25716;-61
2021/12/10 11:25:43;;;;;;;39.23;17.62;;;;;;;9.45;51.86;97171.13;1681933;85;28157;-61
2021/12/10 11:28:17;;;;;;;44.58;18.02;;;;;;;9.10;52.17;97171.59;1681571;84;25978;-62
2021/12/10 11:30:52;;;;;;;30.52;14.47;;;;;;;8.73;52.47;97175.06;1677179;85;25940;-62
2021/12/10 11:33:25;;;;;;;65.30;22.32;;;;;;;8.32;54.26;97171.48;1681679;85;25898;-63
2021/12/10 11:35:59;;;;;;;52.93;21.12;;;;;;;8.09;55.54;97175.16;1681875;85;25674;-62
2021/12/10 11:38:31;;;;;;;67.62;26.00;;;;;;;7.98;55.46;97178.85;1700591;83;27429;-63
2021/12/10 11:41:06;;;;;;;49.88;17.45;;;;;;;7.73;54.89;97190.98;1709955;83;25498;-63